sensor_id;sensor_type;location;lat;lon;timestamp;temperature;humidity
10492;DHT22;5293;51.464;-2.566;2022-10-18T00:01:09;11.10;99.90
10492;DHT22;5293;51.464;-2.566;2022-10-18T00:03:36;11.10;99.90
10492;DHT22;5293;51.464;-2.566;2022-10-18T00:06:02;11.00;99.90
10492;DHT22;5293;51.464;-2.566;2022-10-18T00:08:28;11.00;99.90
10492;DHT22;5293;51.464;-2.566;2022-10-18T00:10:54;11.00;99.90
10492;DHT22;5293;51.464;-2.566;2022-10-18T00:13:20;11.10;99.90
10492;DHT22;5293;51.464;-2.566;2022-10-18T00:15:58;11.10;99.90
10492;DHT22;5293;51.464;-2.566;2022-10-18T00:18:24;10.90;99.90
10492;DHT22;5293;51.464;-2.566;2022-10-18T00:21:02;11.00;99.90
10492;DHT22;5293;51.464;-2.566;2022-10-18T00:23:29;11.10;99.90
10492;DHT22;5293;51.464;-2.566;2022-10-18T00:28:25;10.90;99.90
10492;DHT22;5293;51.464;-2.566;2022-10-18T00:30:50;10.90;99.90
10492;DHT22;5293;51.464;-2.566;2022-10-18T00:33:16;10.80;99.90
10492;DHT22;5293;51.464;-2.566;2022-10-18T00:35:42;10.90;99.90
10492;DHT22;5293;51.464;-2.566;2022-10-18T00:38:07;10.90;99.90
10492;DHT22;5293;51.464;-2.566;2022-10-18T00:40:33;10.80;99.90
10492;DHT22;5293;51.464;-2.566;2022-10-18T00:42:58;10.80;99.90
10492;DHT22;5293;51.464;-2.566;2022-10-18T00:45:24;10.80;99.90
10492;DHT22;5293;51.464;-2.566;2022-10-18T00:47:58;10.80;99.90
10492;DHT22;5293;51.464;-2.566;2022-10-18T00:50:26;10.70;99.90
10492;DHT22;5293;51.464;-2.566;2022-10-18T00:52:57;10.80;99.90
10492;DHT22;5293;51.464;-2.566;2022-10-18T00:55:27;10.80;99.90
10492;DHT22;5293;51.464;-2.566;2022-10-18T00:57:53;10.80;99.90
10492;DHT22;5293;51.464;-2.566;2022-10-18T01:00:19;10.70;99.90
10492;DHT22;5293;51.464;-2.566;2022-10-18T01:02:45;10.70;99.90
10492;DHT22;5293;51.464;-2.566;2022-10-18T01:05:13;10.70;99.90
10492;DHT22;5293;51.464;-2.566;2022-10-18T01:10:42;10.70;99.90
10492;DHT22;5293;51.464;-2.566;2022-10-18T01:18:42;10.60;99.90
10492;DHT22;5293;51.464;-2.566;2022-10-18T01:26:44;10.40;99.90
10492;DHT22;5293;51.464;-2.566;2022-10-18T01:32:36;10.40;99.90
10492;DHT22;5293;51.464;-2.566;2022-10-18T01:35:09;10.30;99.90
10492;DHT22;5293;51.464;-2.566;2022-10-18T01:37:36;10.30;99.90
10492;DHT22;5293;51.464;-2.566;2022-10-18T01:40:04;10.20;99.90
10492;DHT22;5293;51.464;-2.566;2022-10-18T01:42:31;10.20;99.90
10492;DHT22;5293;51.464;-2.566;2022-10-18T01:44:57;10.20;99.90
10492;DHT22;5293;51.464;-2.566;2022-10-18T01:47:24;10.10;99.90
10492;DHT22;5293;51.464;-2.566;2022-10-18T01:49:59;10.20;99.90
10492;DHT22;5293;51.464;-2.566;2022-10-18T01:52:25;10.10;99.90
10492;DHT22;5293;51.464;-2.566;2022-10-18T01:54:51;10.10;99.90
10492;DHT22;5293;51.464;-2.566;2022-10-18T01:57:58;10.10;99.90
10492;DHT22;5293;51.464;-2.566;2022-10-18T02:00:34;10.10;99.90
10492;DHT22;5293;51.464;-2.566;2022-10-18T02:03:20;10.10;99.90
10492;DHT22;5293;51.464;-2.566;2022-10-18T02:06:09;10.20;99.90
10492;DHT22;5293;51.464;-2.566;2022-10-18T02:08:44;10.10;99.90
10492;DHT22;5293;51.464;-2.566;2022-10-18T02:11:12;9.80;99.90
10492;DHT22;5293;51.464;-2.566;2022-10-18T02:13:48;10.10;99.90
10492;DHT22;5293;51.464;-2.566;2022-10-18T02:16:20;10.10;99.90
10492;DHT22;5293;51.464;-2.566;2022-10-18T02:18:51;10.00;99.90
10492;DHT22;5293;51.464;-2.566;2022-10-18T02:21:20;10.00;99.90
10492;DHT22;5293;51.464;-2.566;2022-10-18T02:23:47;10.10;99.90
10492;DHT22;5293;51.464;-2.566;2022-10-18T02:26:14;10.00;99.90
10492;DHT22;5293;51.464;-2.566;2022-10-18T02:28:40;9.90;99.90
10492;DHT22;5293;51.464;-2.566;2022-10-18T02:34:13;9.90;99.90
10492;DHT22;5293;51.464;-2.566;2022-10-18T02:36:51;9.90;99.90
10492;DHT22;5293;51.464;-2.566;2022-10-18T02:39:24;9.80;99.90
10492;DHT22;5293;51.464;-2.566;2022-10-18T02:41:53;9.80;99.90
10492;DHT22;5293;51.464;-2.566;2022-10-18T02:44:19;9.80;99.90
10492;DHT22;5293;51.464;-2.566;2022-10-18T02:46:45;9.80;99.90
10492;DHT22;5293;51.464;-2.566;2022-10-18T02:49:11;9.80;99.90
10492;DHT22;5293;51.464;-2.566;2022-10-18T02:51:37;9.80;99.90
10492;DHT22;5293;51.464;-2.566;2022-10-18T02:54:03;9.80;99.90
10492;DHT22;5293;51.464;-2.566;2022-10-18T02:56:29;9.70;99.90
10492;DHT22;5293;51.464;-2.566;2022-10-18T02:58:54;9.80;99.90
10492;DHT22;5293;51.464;-2.566;2022-10-18T03:01:20;9.60;99.90
10492;DHT22;5293;51.464;-2.566;2022-10-18T03:03:46;9.70;99.90
10492;DHT22;5293;51.464;-2.566;2022-10-18T03:06:12;9.70;99.90
10492;DHT22;5293;51.464;-2.566;2022-10-18T03:08:37;9.50;99.90
10492;DHT22;5293;51.464;-2.566;2022-10-18T03:11:03;9.50;99.90
10492;DHT22;5293;51.464;-2.566;2022-10-18T03:13:29;9.40;99.90
10492;DHT22;5293;51.464;-2.566;2022-10-18T03:15:54;9.40;99.90
10492;DHT22;5293;51.464;-2.566;2022-10-18T03:18:20;9.50;99.90
10492;DHT22;5293;51.464;-2.566;2022-10-18T03:20:45;9.40;99.90
10492;DHT22;5293;51.464;-2.566;2022-10-18T03:23:11;9.40;99.90
10492;DHT22;5293;51.464;-2.566;2022-10-18T03:25:37;9.40;99.90
10492;DHT22;5293;51.464;-2.566;2022-10-18T03:28:02;9.30;99.90
10492;DHT22;5293;51.464;-2.566;2022-10-18T03:30:28;9.40;99.90
10492;DHT22;5293;51.464;-2.566;2022-10-18T03:32:54;9.30;99.90
10492;DHT22;5293;51.464;-2.566;2022-10-18T03:35:20;9.30;99.90
10492;DHT22;5293;51.464;-2.566;2022-10-18T03:37:45;9.30;99.90
10492;DHT22;5293;51.464;-2.566;2022-10-18T03:40:11;9.30;99.90
10492;DHT22;5293;51.464;-2.566;2022-10-18T03:42:37;9.40;99.90
10492;DHT22;5293;51.464;-2.566;2022-10-18T03:45:03;9.40;99.90
10492;DHT22;5293;51.464;-2.566;2022-10-18T03:47:29;9.30;99.90
10492;DHT22;5293;51.464;-2.566;2022-10-18T03:49:55;9.30;99.90
10492;DHT22;5293;51.464;-2.566;2022-10-18T03:52:20;9.30;99.90
10492;DHT22;5293;51.464;-2.566;2022-10-18T03:54:46;9.20;99.90
10492;DHT22;5293;51.464;-2.566;2022-10-18T03:57:11;9.20;99.90
10492;DHT22;5293;51.464;-2.566;2022-10-18T03:59:37;9.30;99.90
10492;DHT22;5293;51.464;-2.566;2022-10-18T04:02:03;9.20;99.90
10492;DHT22;5293;51.464;-2.566;2022-10-18T04:04:29;9.20;99.90
10492;DHT22;5293;51.464;-2.566;2022-10-18T04:06:55;9.20;99.90
10492;DHT22;5293;51.464;-2.566;2022-10-18T04:09:20;9.30;99.90
10492;DHT22;5293;51.464;-2.566;2022-10-18T04:11:49;9.30;99.90
10492;DHT22;5293;51.464;-2.566;2022-10-18T04:14:15;9.40;99.90
10492;DHT22;5293;51.464;-2.566;2022-10-18T04:16:40;9.40;99.90
10492;DHT22;5293;51.464;-2.566;2022-10-18T04:19:06;9.30;99.90
10492;DHT22;5293;51.464;-2.566;2022-10-18T04:21:32;9.20;99.90
10492;DHT22;5293;51.464;-2.566;2022-10-18T04:23:57;9.30;99.90
10492;DHT22;5293;51.464;-2.566;2022-10-18T04:26:23;9.30;99.90
10492;DHT22;5293;51.464;-2.566;2022-10-18T04:28:48;9.30;99.90
10492;DHT22;5293;51.464;-2.566;2022-10-18T04:31:14;9.30;99.90
10492;DHT22;5293;51.464;-2.566;2022-10-18T04:33:40;9.20;99.90
10492;DHT22;5293;51.464;-2.566;2022-10-18T04:36:05;9.30;99.90
10492;DHT22;5293;51.464;-2.566;2022-10-18T04:38:31;9.20;99.90
10492;DHT22;5293;51.464;-2.566;2022-10-18T04:40:57;10.00;99.90
10492;DHT22;5293;51.464;-2.566;2022-10-18T04:43:22;9.20;99.90
10492;DHT22;5293;51.464;-2.566;2022-10-18T04:45:48;9.20;99.90
10492;DHT22;5293;51.464;-2.566;2022-10-18T04:48:16;9.20;99.90
10492;DHT22;5293;51.464;-2.566;2022-10-18T04:50:42;9.20;99.90
10492;DHT22;5293;51.464;-2.566;2022-10-18T04:53:07;9.10;99.90
10492;DHT22;5293;51.464;-2.566;2022-10-18T04:55:33;9.00;99.90
10492;DHT22;5293;51.464;-2.566;2022-10-18T04:57:59;9.00;99.90
10492;DHT22;5293;51.464;-2.566;2022-10-18T05:00:24;9.10;99.90
10492;DHT22;5293;51.464;-2.566;2022-10-18T05:02:55;9.20;99.90
10492;DHT22;5293;51.464;-2.566;2022-10-18T05:05:22;9.10;99.90
10492;DHT22;5293;51.464;-2.566;2022-10-18T05:07:47;9.10;99.90
10492;DHT22;5293;51.464;-2.566;2022-10-18T05:10:13;9.00;99.90
10492;DHT22;5293;51.464;-2.566;2022-10-18T05:12:39;9.10;99.90
10492;DHT22;5293;51.464;-2.566;2022-10-18T05:15:05;9.10;99.90
10492;DHT22;5293;51.464;-2.566;2022-10-18T05:17:30;9.00;99.90
10492;DHT22;5293;51.464;-2.566;2022-10-18T05:19:56;8.90;99.90
10492;DHT22;5293;51.464;-2.566;2022-10-18T05:22:22;8.90;99.90
10492;DHT22;5293;51.464;-2.566;2022-10-18T05:24:47;9.00;99.90
10492;DHT22;5293;51.464;-2.566;2022-10-18T05:27:13;9.00;99.90
10492;DHT22;5293;51.464;-2.566;2022-10-18T05:29:38;9.00;99.90
10492;DHT22;5293;51.464;-2.566;2022-10-18T05:32:04;8.90;99.90
10492;DHT22;5293;51.464;-2.566;2022-10-18T05:34:30;8.80;99.90
10492;DHT22;5293;51.464;-2.566;2022-10-18T05:36:59;8.70;99.90
10492;DHT22;5293;51.464;-2.566;2022-10-18T05:39:24;8.70;99.90
10492;DHT22;5293;51.464;-2.566;2022-10-18T05:41:50;8.70;99.90
10492;DHT22;5293;51.464;-2.566;2022-10-18T05:44:16;8.70;99.90
10492;DHT22;5293;51.464;-2.566;2022-10-18T05:46:41;8.80;99.90
10492;DHT22;5293;51.464;-2.566;2022-10-18T05:49:10;8.70;99.90
10492;DHT22;5293;51.464;-2.566;2022-10-18T05:51:36;8.80;99.90
10492;DHT22;5293;51.464;-2.566;2022-10-18T05:54:02;8.70;99.90
10492;DHT22;5293;51.464;-2.566;2022-10-18T05:56:27;8.70;99.90
10492;DHT22;5293;51.464;-2.566;2022-10-18T05:58:53;8.70;99.90
10492;DHT22;5293;51.464;-2.566;2022-10-18T06:01:19;8.80;99.90
10492;DHT22;5293;51.464;-2.566;2022-10-18T06:03:45;8.80;99.90
10492;DHT22;5293;51.464;-2.566;2022-10-18T06:06:12;8.90;99.90
10492;DHT22;5293;51.464;-2.566;2022-10-18T06:08:40;8.90;99.90
10492;DHT22;5293;51.464;-2.566;2022-10-18T06:11:16;9.00;99.90
10492;DHT22;5293;51.464;-2.566;2022-10-18T06:13:44;9.00;99.90
10492;DHT22;5293;51.464;-2.566;2022-10-18T06:16:11;9.00;99.90
10492;DHT22;5293;51.464;-2.566;2022-10-18T06:18:37;9.10;99.90
10492;DHT22;5293;51.464;-2.566;2022-10-18T06:21:03;9.10;99.90
10492;DHT22;5293;51.464;-2.566;2022-10-18T06:23:28;9.00;99.90
10492;DHT22;5293;51.464;-2.566;2022-10-18T06:25:58;9.00;99.90
10492;DHT22;5293;51.464;-2.566;2022-10-18T06:28:24;8.90;99.90
10492;DHT22;5293;51.464;-2.566;2022-10-18T06:30:50;8.90;99.90
10492;DHT22;5293;51.464;-2.566;2022-10-18T06:33:16;8.90;99.90
10492;DHT22;5293;51.464;-2.566;2022-10-18T06:35:41;8.90;99.90
10492;DHT22;5293;51.464;-2.566;2022-10-18T06:38:07;8.90;99.90
10492;DHT22;5293;51.464;-2.566;2022-10-18T06:40:33;8.90;99.90
10492;DHT22;5293;51.464;-2.566;2022-10-18T06:43:05;8.90;99.90
10492;DHT22;5293;51.464;-2.566;2022-10-18T06:45:31;8.90;99.90
10492;DHT22;5293;51.464;-2.566;2022-10-18T06:47:57;9.00;99.90
10492;DHT22;5293;51.464;-2.566;2022-10-18T06:50:23;8.80;99.90
10492;DHT22;5293;51.464;-2.566;2022-10-18T06:52:51;8.90;99.90
10492;DHT22;5293;51.464;-2.566;2022-10-18T06:55:17;8.90;99.90
10492;DHT22;5293;51.464;-2.566;2022-10-18T06:57:42;8.90;99.90
10492;DHT22;5293;51.464;-2.566;2022-10-18T07:00:08;8.80;99.90
10492;DHT22;5293;51.464;-2.566;2022-10-18T07:02:34;8.90;99.90
10492;DHT22;5293;51.464;-2.566;2022-10-18T07:05:01;8.90;99.90
10492;DHT22;5293;51.464;-2.566;2022-10-18T07:07:29;8.90;99.90
10492;DHT22;5293;51.464;-2.566;2022-10-18T07:09:55;9.40;99.90
10492;DHT22;5293;51.464;-2.566;2022-10-18T07:12:21;9.00;99.90
10492;DHT22;5293;51.464;-2.566;2022-10-18T07:14:46;8.90;99.90
10492;DHT22;5293;51.464;-2.566;2022-10-18T07:17:12;9.00;99.90
10492;DHT22;5293;51.464;-2.566;2022-10-18T07:19:38;9.00;99.90
10492;DHT22;5293;51.464;-2.566;2022-10-18T07:22:03;9.00;99.90
10492;DHT22;5293;51.464;-2.566;2022-10-18T07:24:29;9.00;99.90
10492;DHT22;5293;51.464;-2.566;2022-10-18T07:26:55;9.10;99.90
10492;DHT22;5293;51.464;-2.566;2022-10-18T07:29:20;9.00;99.90
10492;DHT22;5293;51.464;-2.566;2022-10-18T07:31:46;9.10;99.90
10492;DHT22;5293;51.464;-2.566;2022-10-18T07:34:12;9.10;99.90
10492;DHT22;5293;51.464;-2.566;2022-10-18T07:36:38;9.20;99.90
10492;DHT22;5293;51.464;-2.566;2022-10-18T07:39:04;9.20;99.90
10492;DHT22;5293;51.464;-2.566;2022-10-18T07:41:30;9.20;99.90
10492;DHT22;5293;51.464;-2.566;2022-10-18T07:43:59;9.30;99.90
10492;DHT22;5293;51.464;-2.566;2022-10-18T07:46:25;9.50;99.90
10492;DHT22;5293;51.464;-2.566;2022-10-18T07:48:51;9.60;99.90
10492;DHT22;5293;51.464;-2.566;2022-10-18T07:51:19;9.60;99.90
10492;DHT22;5293;51.464;-2.566;2022-10-18T07:53:45;9.70;99.90
10492;DHT22;5293;51.464;-2.566;2022-10-18T07:56:13;9.80;99.90
10492;DHT22;5293;51.464;-2.566;2022-10-18T07:58:43;9.80;99.90
10492;DHT22;5293;51.464;-2.566;2022-10-18T08:01:10;9.70;99.90
10492;DHT22;5293;51.464;-2.566;2022-10-18T08:03:36;9.60;99.90
10492;DHT22;5293;51.464;-2.566;2022-10-18T08:06:02;9.70;99.90
10492;DHT22;5293;51.464;-2.566;2022-10-18T08:08:29;9.70;99.90
10492;DHT22;5293;51.464;-2.566;2022-10-18T08:11:00;9.70;99.90
10492;DHT22;5293;51.464;-2.566;2022-10-18T08:13:25;9.80;99.90
10492;DHT22;5293;51.464;-2.566;2022-10-18T08:16:01;9.90;99.90
10492;DHT22;5293;51.464;-2.566;2022-10-18T08:18:28;9.80;99.90
10492;DHT22;5293;51.464;-2.566;2022-10-18T08:20:54;9.80;99.90
10492;DHT22;5293;51.464;-2.566;2022-10-18T08:23:20;9.70;99.90
10492;DHT22;5293;51.464;-2.566;2022-10-18T08:25:46;9.70;99.90
10492;DHT22;5293;51.464;-2.566;2022-10-18T08:28:12;9.80;99.90
10492;DHT22;5293;51.464;-2.566;2022-10-18T08:30:41;9.90;99.90
10492;DHT22;5293;51.464;-2.566;2022-10-18T08:33:07;9.90;99.90
10492;DHT22;5293;51.464;-2.566;2022-10-18T08:35:33;10.00;99.90
10492;DHT22;5293;51.464;-2.566;2022-10-18T08:37:59;10.10;99.90
10492;DHT22;5293;51.464;-2.566;2022-10-18T08:40:25;10.10;99.90
10492;DHT22;5293;51.464;-2.566;2022-10-18T08:45:27;10.20;99.90
10492;DHT22;5293;51.464;-2.566;2022-10-18T08:47:53;10.20;99.90
10492;DHT22;5293;51.464;-2.566;2022-10-18T08:50:40;10.30;99.90
10492;DHT22;5293;51.464;-2.566;2022-10-18T08:53:31;10.40;99.90
10492;DHT22;5293;51.464;-2.566;2022-10-18T08:56:05;10.60;99.90
10492;DHT22;5293;51.464;-2.566;2022-10-18T08:58:41;10.70;99.90
10492;DHT22;5293;51.464;-2.566;2022-10-18T09:12:54;10.90;99.90
10492;DHT22;5293;51.464;-2.566;2022-10-18T09:20:33;11.00;99.90
10492;DHT22;5293;51.464;-2.566;2022-10-18T09:34:36;11.40;99.90
10492;DHT22;5293;51.464;-2.566;2022-10-18T09:37:03;11.60;99.90
10492;DHT22;5293;51.464;-2.566;2022-10-18T09:39:32;11.70;99.90
10492;DHT22;5293;51.464;-2.566;2022-10-18T09:42:09;11.90;99.90
10492;DHT22;5293;51.464;-2.566;2022-10-18T09:44:43;11.90;99.90
10492;DHT22;5293;51.464;-2.566;2022-10-18T09:47:18;11.90;99.90
10492;DHT22;5293;51.464;-2.566;2022-10-18T09:49:55;11.90;99.90
10492;DHT22;5293;51.464;-2.566;2022-10-18T09:53:03;11.90;99.90
10492;DHT22;5293;51.464;-2.566;2022-10-18T09:55:35;11.90;99.90
10492;DHT22;5293;51.464;-2.566;2022-10-18T09:58:05;11.80;99.90
10492;DHT22;5293;51.464;-2.566;2022-10-18T10:00:37;11.70;99.90
10492;DHT22;5293;51.464;-2.566;2022-10-18T10:03:10;11.70;99.90
10492;DHT22;5293;51.464;-2.566;2022-10-18T10:05:43;11.70;99.90
10492;DHT22;5293;51.464;-2.566;2022-10-18T10:08:09;11.80;99.90
10492;DHT22;5293;51.464;-2.566;2022-10-18T10:10:38;11.80;99.90
10492;DHT22;5293;51.464;-2.566;2022-10-18T10:13:23;11.80;99.90
10492;DHT22;5293;51.464;-2.566;2022-10-18T10:16:08;11.80;99.90
10492;DHT22;5293;51.464;-2.566;2022-10-18T10:18:35;11.90;99.90
10492;DHT22;5293;51.464;-2.566;2022-10-18T10:21:05;12.00;99.90
10492;DHT22;5293;51.464;-2.566;2022-10-18T10:23:36;12.00;99.90
10492;DHT22;5293;51.464;-2.566;2022-10-18T10:26:26;12.10;99.90
10492;DHT22;5293;51.464;-2.566;2022-10-18T10:28:52;12.20;99.90
10492;DHT22;5293;51.464;-2.566;2022-10-18T10:34:19;12.30;99.90
10492;DHT22;5293;51.464;-2.566;2022-10-18T10:36:50;12.50;99.90
10492;DHT22;5293;51.464;-2.566;2022-10-18T10:39:18;12.60;99.90
10492;DHT22;5293;51.464;-2.566;2022-10-18T10:42:02;12.70;99.90
10492;DHT22;5293;51.464;-2.566;2022-10-18T10:44:29;12.80;99.90
10492;DHT22;5293;51.464;-2.566;2022-10-18T10:46:57;12.90;99.90
10492;DHT22;5293;51.464;-2.566;2022-10-18T10:49:46;13.00;99.90
10492;DHT22;5293;51.464;-2.566;2022-10-18T10:52:25;13.10;99.90
10492;DHT22;5293;51.464;-2.566;2022-10-18T10:54:53;13.20;99.90
10492;DHT22;5293;51.464;-2.566;2022-10-18T10:57:25;13.20;99.90
10492;DHT22;5293;51.464;-2.566;2022-10-18T10:59:54;13.30;99.90
10492;DHT22;5293;51.464;-2.566;2022-10-18T11:02:21;13.30;99.90
10492;DHT22;5293;51.464;-2.566;2022-10-18T11:04:51;13.50;99.90
10492;DHT22;5293;51.464;-2.566;2022-10-18T11:07:39;13.60;99.90
10492;DHT22;5293;51.464;-2.566;2022-10-18T11:15:42;14.00;99.90
10492;DHT22;5293;51.464;-2.566;2022-10-18T11:18:26;14.20;99.90
10492;DHT22;5293;51.464;-2.566;2022-10-18T11:23:34;14.50;99.90
10492;DHT22;5293;51.464;-2.566;2022-10-18T11:36:06;14.90;99.90
10492;DHT22;5293;51.464;-2.566;2022-10-18T11:49:55;15.50;99.90
10492;DHT22;5293;51.464;-2.566;2022-10-18T12:03:10;15.70;99.90
10492;DHT22;5293;51.464;-2.566;2022-10-18T12:05:34;15.80;99.90
10492;DHT22;5293;51.464;-2.566;2022-10-18T12:08:07;15.90;99.90
10492;DHT22;5293;51.464;-2.566;2022-10-18T12:10:34;16.00;99.90
10492;DHT22;5293;51.464;-2.566;2022-10-18T12:13:04;16.00;99.90
10492;DHT22;5293;51.464;-2.566;2022-10-18T12:15:35;16.00;99.90
10492;DHT22;5293;51.464;-2.566;2022-10-18T12:18:11;16.10;99.90
10492;DHT22;5293;51.464;-2.566;2022-10-18T12:20:46;16.30;99.90
10492;DHT22;5293;51.464;-2.566;2022-10-18T12:25:55;16.30;99.90
10492;DHT22;5293;51.464;-2.566;2022-10-18T12:28:52;16.30;99.90
10492;DHT22;5293;51.464;-2.566;2022-10-18T12:31:38;16.40;99.90
10492;DHT22;5293;51.464;-2.566;2022-10-18T12:37:15;16.40;99.90
10492;DHT22;5293;51.464;-2.566;2022-10-18T12:39:56;16.40;99.90
10492;DHT22;5293;51.464;-2.566;2022-10-18T12:42:25;16.60;99.90
10492;DHT22;5293;51.464;-2.566;2022-10-18T12:45:02;16.60;99.90
10492;DHT22;5293;51.464;-2.566;2022-10-18T12:47:28;16.70;99.90
10492;DHT22;5293;51.464;-2.566;2022-10-18T12:50:03;16.70;99.90
10492;DHT22;5293;51.464;-2.566;2022-10-18T12:52:30;16.60;99.90
10492;DHT22;5293;51.464;-2.566;2022-10-18T13:19:50;17.20;99.90
10492;DHT22;5293;51.464;-2.566;2022-10-18T13:22:43;17.20;99.90
10492;DHT22;5293;51.464;-2.566;2022-10-18T13:25:14;17.20;99.90
10492;DHT22;5293;51.464;-2.566;2022-10-18T13:33:34;17.30;99.90
10492;DHT22;5293;51.464;-2.566;2022-10-18T13:36:26;17.20;99.90
10492;DHT22;5293;51.464;-2.566;2022-10-18T13:44:09;17.30;99.90
10492;DHT22;5293;51.464;-2.566;2022-10-18T14:06:11;17.70;99.90
10492;DHT22;5293;51.464;-2.566;2022-10-18T14:08:53;17.70;99.90
10492;DHT22;5293;51.464;-2.566;2022-10-18T14:14:14;17.80;99.90
10492;DHT22;5293;51.464;-2.566;2022-10-18T14:19:43;17.80;99.90
10492;DHT22;5293;51.464;-2.566;2022-10-18T14:22:20;17.80;99.90
10492;DHT22;5293;51.464;-2.566;2022-10-18T14:24:52;17.80;99.90
10492;DHT22;5293;51.464;-2.566;2022-10-18T14:29:48;18.00;99.90
10492;DHT22;5293;51.464;-2.566;2022-10-18T14:32:28;18.00;99.90
10492;DHT22;5293;51.464;-2.566;2022-10-18T14:34:55;18.00;99.90
10492;DHT22;5293;51.464;-2.566;2022-10-18T14:37:30;18.10;99.90
10492;DHT22;5293;51.464;-2.566;2022-10-18T14:39:57;18.10;99.90
10492;DHT22;5293;51.464;-2.566;2022-10-18T14:42:24;18.20;99.90
10492;DHT22;5293;51.464;-2.566;2022-10-18T14:44:51;18.10;99.90
10492;DHT22;5293;51.464;-2.566;2022-10-18T14:47:25;18.00;99.90
10492;DHT22;5293;51.464;-2.566;2022-10-18T14:49:52;18.10;99.90
10492;DHT22;5293;51.464;-2.566;2022-10-18T14:52:45;18.00;99.90
10492;DHT22;5293;51.464;-2.566;2022-10-18T14:55:25;18.00;99.90
10492;DHT22;5293;51.464;-2.566;2022-10-18T14:57:53;17.80;99.90
10492;DHT22;5293;51.464;-2.566;2022-10-18T15:00:23;17.70;99.90
10492;DHT22;5293;51.464;-2.566;2022-10-18T15:02:50;17.80;99.90
10492;DHT22;5293;51.464;-2.566;2022-10-18T15:05:22;17.80;99.90
10492;DHT22;5293;51.464;-2.566;2022-10-18T15:07:50;17.80;99.90
10492;DHT22;5293;51.464;-2.566;2022-10-18T15:10:19;17.70;99.90
10492;DHT22;5293;51.464;-2.566;2022-10-18T15:12:46;17.60;99.90
10492;DHT22;5293;51.464;-2.566;2022-10-18T15:15:21;17.60;99.90
10492;DHT22;5293;51.464;-2.566;2022-10-18T15:17:48;17.70;99.90
10492;DHT22;5293;51.464;-2.566;2022-10-18T15:20:24;17.80;99.90
10492;DHT22;5293;51.464;-2.566;2022-10-18T15:22:51;17.90;99.90
10492;DHT22;5293;51.464;-2.566;2022-10-18T15:25:24;17.80;99.90
10492;DHT22;5293;51.464;-2.566;2022-10-18T15:27:55;17.90;99.90
10492;DHT22;5293;51.464;-2.566;2022-10-18T15:30:26;17.80;99.90
10492;DHT22;5293;51.464;-2.566;2022-10-18T15:32:57;17.80;99.90
10492;DHT22;5293;51.464;-2.566;2022-10-18T15:35:26;17.70;99.90
10492;DHT22;5293;51.464;-2.566;2022-10-18T15:37:54;17.70;99.90
10492;DHT22;5293;51.464;-2.566;2022-10-18T15:42:54;17.70;99.90
10492;DHT22;5293;51.464;-2.566;2022-10-18T15:55:49;17.50;99.90
10492;DHT22;5293;51.464;-2.566;2022-10-18T15:58:43;17.40;99.90
10492;DHT22;5293;51.464;-2.566;2022-10-18T16:01:19;17.40;99.90
10492;DHT22;5293;51.464;-2.566;2022-10-18T16:03:46;17.40;99.90
10492;DHT22;5293;51.464;-2.566;2022-10-18T16:06:13;17.40;99.90
10492;DHT22;5293;51.464;-2.566;2022-10-18T16:08:45;17.40;99.90
10492;DHT22;5293;51.464;-2.566;2022-10-18T16:11:16;17.40;99.90
10492;DHT22;5293;51.464;-2.566;2022-10-18T16:13:43;17.30;99.90
10492;DHT22;5293;51.464;-2.566;2022-10-18T16:16:20;17.30;99.90
10492;DHT22;5293;51.464;-2.566;2022-10-18T16:18:46;17.30;99.90
10492;DHT22;5293;51.464;-2.566;2022-10-18T16:21:22;17.20;99.90
10492;DHT22;5293;51.464;-2.566;2022-10-18T16:23:48;17.20;99.90
10492;DHT22;5293;51.464;-2.566;2022-10-18T16:26:15;17.10;99.90
10492;DHT22;5293;51.464;-2.566;2022-10-18T16:28:41;17.10;99.90
10492;DHT22;5293;51.464;-2.566;2022-10-18T16:31:08;17.10;99.90
10492;DHT22;5293;51.464;-2.566;2022-10-18T16:33:34;17.00;99.90
10492;DHT22;5293;51.464;-2.566;2022-10-18T16:36:01;17.00;99.90
10492;DHT22;5293;51.464;-2.566;2022-10-18T16:38:30;17.00;99.90
10492;DHT22;5293;51.464;-2.566;2022-10-18T16:40:56;16.50;99.90
10492;DHT22;5293;51.464;-2.566;2022-10-18T16:43:22;16.90;99.90
10492;DHT22;5293;51.464;-2.566;2022-10-18T16:45:49;16.90;99.90
10492;DHT22;5293;51.464;-2.566;2022-10-18T16:48:18;16.90;99.90
10492;DHT22;5293;51.464;-2.566;2022-10-18T16:50:44;16.80;99.90
10492;DHT22;5293;51.464;-2.566;2022-10-18T16:53:10;16.70;99.90
10492;DHT22;5293;51.464;-2.566;2022-10-18T16:55:37;16.70;99.90
10492;DHT22;5293;51.464;-2.566;2022-10-18T16:58:03;16.60;99.90
10492;DHT22;5293;51.464;-2.566;2022-10-18T17:00:29;16.50;99.90
10492;DHT22;5293;51.464;-2.566;2022-10-18T17:02:55;16.50;99.90
10492;DHT22;5293;51.464;-2.566;2022-10-18T17:05:21;16.40;99.90
10492;DHT22;5293;51.464;-2.566;2022-10-18T17:07:48;16.30;99.90
10492;DHT22;5293;51.464;-2.566;2022-10-18T17:10:18;16.40;99.90
10492;DHT22;5293;51.464;-2.566;2022-10-18T17:12:44;16.40;99.90
10492;DHT22;5293;51.464;-2.566;2022-10-18T17:15:11;16.30;99.90
10492;DHT22;5293;51.464;-2.566;2022-10-18T17:17:37;16.20;99.90
10492;DHT22;5293;51.464;-2.566;2022-10-18T17:20:05;16.20;99.90
10492;DHT22;5293;51.464;-2.566;2022-10-18T17:22:31;16.20;99.90
10492;DHT22;5293;51.464;-2.566;2022-10-18T17:24:56;16.20;99.90
10492;DHT22;5293;51.464;-2.566;2022-10-18T17:27:22;16.20;99.90
10492;DHT22;5293;51.464;-2.566;2022-10-18T17:29:48;16.20;99.90
10492;DHT22;5293;51.464;-2.566;2022-10-18T17:32:14;16.20;99.90
10492;DHT22;5293;51.464;-2.566;2022-10-18T17:34:39;16.20;99.90
10492;DHT22;5293;51.464;-2.566;2022-10-18T17:37:06;16.10;99.90
10492;DHT22;5293;51.464;-2.566;2022-10-18T17:39:31;16.10;99.90
10492;DHT22;5293;51.464;-2.566;2022-10-18T17:41:57;16.10;99.90
10492;DHT22;5293;51.464;-2.566;2022-10-18T17:44:23;16.10;99.90
10492;DHT22;5293;51.464;-2.566;2022-10-18T17:46:49;16.00;99.90
10492;DHT22;5293;51.464;-2.566;2022-10-18T17:49:16;16.00;99.90
10492;DHT22;5293;51.464;-2.566;2022-10-18T17:51:42;16.00;99.90
10492;DHT22;5293;51.464;-2.566;2022-10-18T17:54:10;16.00;99.90
10492;DHT22;5293;51.464;-2.566;2022-10-18T17:56:36;16.00;99.90
10492;DHT22;5293;51.464;-2.566;2022-10-18T17:59:02;15.90;99.90
10492;DHT22;5293;51.464;-2.566;2022-10-18T18:01:28;15.90;99.90
10492;DHT22;5293;51.464;-2.566;2022-10-18T18:03:58;15.90;99.90
10492;DHT22;5293;51.464;-2.566;2022-10-18T18:06:27;15.90;99.90
10492;DHT22;5293;51.464;-2.566;2022-10-18T18:08:57;16.00;99.90
10492;DHT22;5293;51.464;-2.566;2022-10-18T18:11:23;15.90;99.90
10492;DHT22;5293;51.464;-2.566;2022-10-18T18:13:49;15.90;99.90
10492;DHT22;5293;51.464;-2.566;2022-10-18T18:16:20;15.90;99.90
10492;DHT22;5293;51.464;-2.566;2022-10-18T18:18:48;15.90;99.90
10492;DHT22;5293;51.464;-2.566;2022-10-18T18:21:15;15.90;99.90
10492;DHT22;5293;51.464;-2.566;2022-10-18T18:23:40;15.90;99.90
10492;DHT22;5293;51.464;-2.566;2022-10-18T18:26:06;15.90;99.90
10492;DHT22;5293;51.464;-2.566;2022-10-18T18:28:33;15.90;99.90
10492;DHT22;5293;51.464;-2.566;2022-10-18T18:31:07;15.90;99.90
10492;DHT22;5293;51.464;-2.566;2022-10-18T18:33:33;15.90;99.90
10492;DHT22;5293;51.464;-2.566;2022-10-18T18:35:59;15.90;99.90
10492;DHT22;5293;51.464;-2.566;2022-10-18T18:38:25;15.80;99.90
10492;DHT22;5293;51.464;-2.566;2022-10-18T18:41:12;15.80;99.90
10492;DHT22;5293;51.464;-2.566;2022-10-18T18:43:42;15.80;99.90
10492;DHT22;5293;51.464;-2.566;2022-10-18T18:46:09;15.90;99.90
10492;DHT22;5293;51.464;-2.566;2022-10-18T18:48:36;15.80;99.90